createdAt,value
2018-11-21T00:00:11.695Z,70.80
2018-11-21T00:02:40.375Z,71.10
2018-11-21T00:05:09.070Z,71.20
2018-11-21T00:07:38.102Z,71.10
2018-11-21T00:10:09.054Z,71.20
2018-11-21T00:12:38.544Z,71.20
2018-11-21T00:15:09.093Z,71.60
2018-11-21T00:17:37.967Z,71.70
2018-11-21T00:20:08.119Z,72.10
2018-11-21T00:22:36.822Z,71.70
2018-11-21T00:25:05.528Z,72.20
2018-11-21T00:27:34.198Z,71.90
2018-11-21T00:30:03.343Z,71.80
2018-11-21T00:32:32.066Z,72.30
2018-11-21T00:35:00.777Z,72.50
2018-11-21T00:37:29.534Z,72.50
2018-11-21T00:39:58.196Z,73.30
2018-11-21T00:42:26.900Z,72.60
2018-11-21T00:44:55.600Z,72.60
2018-11-21T00:47:24.287Z,72.70
2018-11-21T00:49:52.947Z,72.40
2018-11-21T00:52:22.001Z,72.20
2018-11-21T00:54:50.721Z,72.50
2018-11-21T00:57:19.424Z,72.60
2018-11-21T00:59:48.127Z,72.70
2018-11-21T01:02:16.888Z,73.00
2018-11-21T01:04:45.490Z,72.80
2018-11-21T01:07:14.504Z,72.70
2018-11-21T01:09:43.191Z,72.90
2018-11-21T01:12:11.903Z,72.90
2018-11-21T01:14:40.621Z,72.70
2018-11-21T01:17:09.332Z,73.20
2018-11-21T01:19:38.044Z,73.40
2018-11-21T01:22:06.760Z,72.70
2018-11-21T01:24:35.472Z,72.90
2018-11-21T01:27:04.186Z,72.80
2018-11-21T01:29:32.893Z,72.90
2018-11-21T01:32:01.591Z,72.90
2018-11-21T01:34:30.706Z,73.00
2018-11-21T01:36:59.407Z,73.00
2018-11-21T01:39:28.096Z,73.20
2018-11-21T01:41:56.983Z,73.10
2018-11-21T01:44:26.086Z,73.00
2018-11-21T01:46:54.749Z,73.80
2018-11-21T01:49:23.467Z,72.90
2018-11-21T01:51:52.153Z,73.00
2018-11-21T01:54:20.872Z,73.10
2018-11-21T01:56:49.537Z,73.20
2018-11-21T01:59:18.229Z,73.30
2018-11-21T02:01:46.922Z,73.30
2018-11-21T02:04:15.641Z,72.70
2018-11-21T02:06:44.325Z,73.20
2018-11-21T02:09:13.447Z,73.20
2018-11-21T02:11:42.111Z,73.20
2018-11-21T02:14:10.797Z,73.90
2018-11-21T02:16:39.499Z,73.50
2018-11-21T02:19:08.169Z,73.20
2018-11-21T02:21:36.938Z,73.70
2018-11-21T02:24:05.506Z,73.20
2018-11-21T02:26:34.204Z,73.20
2018-11-21T02:29:02.887Z,73.10
2018-11-21T02:31:31.559Z,73.00
2018-11-21T02:34:00.228Z,72.80
2018-11-21T02:36:28.941Z,72.70
2018-11-21T02:38:57.628Z,73.30
2018-11-21T02:41:26.338Z,72.80
2018-11-21T02:43:55.043Z,72.90
2018-11-21T02:46:23.774Z,72.90
2018-11-21T02:48:52.479Z,72.40
2018-11-21T02:51:21.184Z,73.80
2018-11-21T02:53:49.881Z,74.40
2018-11-21T02:56:18.554Z,73.80
2018-11-21T02:58:47.245Z,73.90
2018-11-21T03:01:15.938Z,73.60
2018-11-21T03:03:44.664Z,73.30
2018-11-21T03:06:13.361Z,73.00
2018-11-21T03:08:42.079Z,73.00
2018-11-21T03:11:10.782Z,73.50
2018-11-21T03:13:39.731Z,72.50
2018-11-21T03:16:08.416Z,73.20
2018-11-21T03:18:37.125Z,73.20
2018-11-21T03:21:05.787Z,72.60
2018-11-21T03:23:34.506Z,72.90
2018-11-21T03:26:03.183Z,72.70
2018-11-21T03:28:31.865Z,72.70
2018-11-21T03:31:00.586Z,72.70
2018-11-21T03:33:29.281Z,72.60
2018-11-21T03:35:57.952Z,72.60
2018-11-21T03:38:26.638Z,72.90
2018-11-21T03:40:55.345Z,72.30
2018-11-21T03:43:24.025Z,72.80
2018-11-21T03:45:52.732Z,72.70
2018-11-21T03:48:21.415Z,72.90
2018-11-21T03:50:50.125Z,71.90
2018-11-21T03:53:18.813Z,71.70
2018-11-21T03:55:47.527Z,72.60
2018-11-21T03:58:16.202Z,72.40
2018-11-21T04:00:44.893Z,72.80
2018-11-21T04:03:13.595Z,72.60
2018-11-21T04:05:42.607Z,71.90
2018-11-21T04:08:11.327Z,72.00
2018-11-21T04:10:40.009Z,72.10
2018-11-21T04:13:08.724Z,71.60
2018-11-21T04:15:37.411Z,72.50
2018-11-21T04:18:06.318Z,72.00
2018-11-21T04:20:35.022Z,71.70
2018-11-21T04:23:03.752Z,71.90
2018-11-21T04:25:32.441Z,71.80
2018-11-21T04:28:01.131Z,71.90
2018-11-21T04:30:29.875Z,71.70
2018-11-21T04:32:58.569Z,71.60
2018-11-21T04:35:27.286Z,72.70
2018-11-21T04:37:55.972Z,71.90
2018-11-21T04:40:25.035Z,72.10
2018-11-21T04:42:53.705Z,72.30
2018-11-21T04:45:22.405Z,72.90
2018-11-21T04:47:51.097Z,73.10
2018-11-21T04:50:19.823Z,73.20
2018-11-21T04:52:48.500Z,72.70
2018-11-21T04:55:17.190Z,73.60
2018-11-21T04:57:46.187Z,73.50
2018-11-21T05:00:15.200Z,73.60
2018-11-21T05:02:43.880Z,73.10
2018-11-21T05:05:12.637Z,73.20
2018-11-21T05:07:42.577Z,73.20
2018-11-21T05:10:11.256Z,73.00
2018-11-21T05:12:39.975Z,73.30
2018-11-21T05:15:08.955Z,73.00
2018-11-21T05:17:37.849Z,72.40
2018-11-21T05:20:06.626Z,72.30
2018-11-21T05:22:35.237Z,72.20
2018-11-21T05:25:04.151Z,71.40
2018-11-21T05:27:32.847Z,72.30
2018-11-21T05:30:01.552Z,71.70
2018-11-21T05:32:30.257Z,71.70
2018-11-21T05:34:58.960Z,72.00
2018-11-21T05:37:27.646Z,72.00
2018-11-21T05:39:56.328Z,71.50
2018-11-21T05:42:25.026Z,72.50
2018-11-21T05:44:54.047Z,72.40
2018-11-21T05:47:22.731Z,71.70
2018-11-21T05:49:51.428Z,71.30
2018-11-21T05:52:20.117Z,71.90
2018-11-21T05:54:48.846Z,71.60
2018-11-21T05:57:17.511Z,71.80
2018-11-21T05:59:46.223Z,71.60
2018-11-21T06:02:14.912Z,71.40
2018-11-21T06:04:43.624Z,71.10
2018-11-21T06:07:12.370Z,70.90
2018-11-21T06:09:41.357Z,71.60
2018-11-21T06:12:10.116Z,71.70
2018-11-21T06:14:38.796Z,72.00
2018-11-21T06:17:07.537Z,72.00
2018-11-21T06:19:36.227Z,71.60
2018-11-21T06:22:05.154Z,70.60
2018-11-21T06:24:33.838Z,71.40
2018-11-21T06:27:03.851Z,71.40
2018-11-21T06:29:32.994Z,70.90
2018-11-21T06:32:02.499Z,71.50
2018-11-21T06:34:32.824Z,71.70
2018-11-21T06:36:59.848Z,72.00
2018-11-21T06:39:28.528Z,71.80
2018-11-21T06:41:57.242Z,72.30
2018-11-21T06:44:26.069Z,72.30
2018-11-21T06:46:54.680Z,72.60
2018-11-21T06:49:23.369Z,72.20
2018-11-21T06:51:52.070Z,71.90
2018-11-21T06:54:20.742Z,71.50
2018-11-21T06:56:49.452Z,71.10
2018-11-21T06:59:18.173Z,71.20
2018-11-21T07:01:46.845Z,71.30
2018-11-21T07:04:15.578Z,71.60
2018-11-21T07:06:44.276Z,72.10
2018-11-21T07:09:12.967Z,72.70
2018-11-21T07:11:41.668Z,72.20
2018-11-21T07:14:10.389Z,71.90
2018-11-21T07:16:39.883Z,72.10
2018-11-21T07:19:08.584Z,72.50
2018-11-21T07:21:37.527Z,72.10
2018-11-21T07:24:06.992Z,72.10
2018-11-21T07:26:35.688Z,71.80
2018-11-21T07:29:04.773Z,72.10
2018-11-21T07:31:33.669Z,71.70
2018-11-21T07:34:02.353Z,72.00
2018-11-21T07:36:31.404Z,72.10
2018-11-21T07:39:00.120Z,72.00
2018-11-21T07:41:28.829Z,71.60
2018-11-21T07:43:57.894Z,71.10
2018-11-21T07:46:26.608Z,71.80
2018-11-21T07:48:55.265Z,71.20
2018-11-21T07:51:23.964Z,71.60
2018-11-21T07:53:52.640Z,71.90
2018-11-21T07:57:09.318Z,72.00
2018-11-21T07:59:38.076Z,71.60
2018-11-21T08:02:14.657Z,72.50
2018-11-21T08:04:47.373Z,71.90
2018-11-21T08:07:33.456Z,72.60
2018-11-21T08:10:27.650Z,72.90
2018-11-21T08:13:14.136Z,73.10
2018-11-21T08:16:00.748Z,72.80
2018-11-21T08:18:40.519Z,72.80
2018-11-21T08:21:17.568Z,72.70
2018-11-21T08:23:55.802Z,72.70
2018-11-21T08:26:37.368Z,72.80
2018-11-21T08:29:06.117Z,72.60
2018-11-21T08:31:34.847Z,72.00
2018-11-21T08:34:03.523Z,72.40
2018-11-21T08:36:32.940Z,73.20
2018-11-21T08:39:01.741Z,73.30
2018-11-21T08:41:30.453Z,73.70
2018-11-21T08:43:59.180Z,74.70
2018-11-21T08:46:27.836Z,73.80
2018-11-21T08:48:56.522Z,73.50
2018-11-21T08:51:25.196Z,73.20
2018-11-21T08:53:53.885Z,73.30
2018-11-21T08:56:22.577Z,73.10
2018-11-21T08:58:51.339Z,73.00
2018-11-21T09:01:20.332Z,72.80
2018-11-21T09:03:48.995Z,73.20
2018-11-21T09:06:17.689Z,73.00
2018-11-21T09:08:46.468Z,72.90
2018-11-21T09:11:15.078Z,72.90
2018-11-21T09:13:43.831Z,71.80
2018-11-21T09:16:12.512Z,72.70
2018-11-21T09:18:41.208Z,73.00
2018-11-21T09:21:09.875Z,72.70
2018-11-21T09:23:38.582Z,72.30
2018-11-21T09:26:07.573Z,72.40
2018-11-21T09:28:36.368Z,72.10
2018-11-21T09:31:05.338Z,72.40
2018-11-21T09:33:34.013Z,72.10
2018-11-21T09:36:02.688Z,71.90
2018-11-21T09:38:31.394Z,71.50
2018-11-21T09:41:00.078Z,71.70
2018-11-21T09:43:29.158Z,71.30
2018-11-21T09:45:57.850Z,71.60
2018-11-21T09:48:26.526Z,71.90
2018-11-21T09:50:55.201Z,71.60
2018-11-21T09:53:23.893Z,70.90
2018-11-21T09:55:52.584Z,71.40
2018-11-21T09:58:21.244Z,71.30
2018-11-21T10:01:26.737Z,71.20
2018-11-21T10:03:58.853Z,70.70
2018-11-21T10:06:26.013Z,71.00
2018-11-21T10:08:56.587Z,70.80
2018-11-21T10:11:25.282Z,71.20
2018-11-21T10:13:53.935Z,70.40
2018-11-21T10:16:22.954Z,70.60
2018-11-21T10:18:53.285Z,72.30
2018-11-21T10:21:23.954Z,70.00
2018-11-21T10:23:52.614Z,70.60
2018-11-21T10:26:21.313Z,71.00
2018-11-21T10:28:51.218Z,71.30
2018-11-21T10:31:19.892Z,71.80
2018-11-21T10:33:48.621Z,70.30
2018-11-21T10:36:58.157Z,70.80
2018-11-21T10:39:28.062Z,70.80
2018-11-21T10:41:58.042Z,70.50
2018-11-21T10:44:27.953Z,71.00
2018-11-21T10:46:57.849Z,70.90
2018-11-21T10:49:27.786Z,71.50
2018-11-21T10:51:57.679Z,71.00
2018-11-21T10:54:27.592Z,70.80
2018-11-21T10:56:57.459Z,70.60
2018-11-21T10:59:27.369Z,70.50
2018-11-21T11:02:15.111Z,70.20
2018-11-21T11:05:01.959Z,70.20
2018-11-21T11:07:54.152Z,70.10
2018-11-21T11:10:37.551Z,69.50
2018-11-21T11:13:23.831Z,69.50
2018-11-21T11:16:06.262Z,70.10
2018-11-21T11:18:54.347Z,69.20
2018-11-21T11:21:54.623Z,69.90
2018-11-21T11:24:41.801Z,68.60
2018-11-21T11:27:34.193Z,69.40
2018-11-21T11:30:25.958Z,69.30
2018-11-21T11:33:23.686Z,68.90
2018-11-21T11:36:11.546Z,67.90
2018-11-21T11:38:58.811Z,68.70
2018-11-21T11:41:55.563Z,68.60
2018-11-21T11:44:45.086Z,68.20
2018-11-21T11:47:33.791Z,69.30
2018-11-21T11:50:22.722Z,68.80
2018-11-21T11:53:01.979Z,69.40
2018-11-21T11:56:03.583Z,69.40
2018-11-21T11:58:47.613Z,68.30
2018-11-21T12:01:38.522Z,69.30
2018-11-21T12:04:30.366Z,68.70
2018-11-21T12:07:22.031Z,69.80
2018-11-21T12:10:13.440Z,69.30
2018-11-21T12:13:02.244Z,69.40
2018-11-21T12:15:45.487Z,71.00
2018-11-21T12:18:32.875Z,70.20
2018-11-21T12:21:30.796Z,70.80
2018-11-21T12:24:18.147Z,69.50
2018-11-21T12:27:03.151Z,70.00
2018-11-21T12:29:57.848Z,70.30
2018-11-21T12:32:45.147Z,70.80
2018-11-21T12:35:32.439Z,71.10
2018-11-21T12:38:30.274Z,71.30
2018-11-21T12:41:19.037Z,70.20
2018-11-21T12:44:10.390Z,70.80
2018-11-21T12:47:02.240Z,70.90
2018-11-21T12:49:39.854Z,70.40
2018-11-21T12:52:27.115Z,70.90
2018-11-21T12:55:14.724Z,71.60
2018-11-21T12:58:07.030Z,71.50
2018-11-21T13:01:14.593Z,71.40
2018-11-21T13:04:03.028Z,70.80
2018-11-21T13:06:42.839Z,71.60
2018-11-21T13:09:21.851Z,71.50
2018-11-21T13:12:16.473Z,71.10
2018-11-21T13:15:00.411Z,71.30
2018-11-21T13:17:49.111Z,71.60
2018-11-21T13:20:35.575Z,71.40
2018-11-21T13:23:21.044Z,70.70
2018-11-21T13:26:09.745Z,71.50
2018-11-21T13:29:07.152Z,71.30
2018-11-21T13:32:02.144Z,71.70
2018-11-21T13:35:05.858Z,70.50
2018-11-21T13:37:58.510Z,71.50
2018-11-21T13:40:45.839Z,71.60
2018-11-21T13:43:37.948Z,72.20
2018-11-21T13:46:18.236Z,71.60
2018-11-21T13:49:01.352Z,71.60
2018-11-21T13:51:52.760Z,71.90
2018-11-21T13:54:43.390Z,71.60
2018-11-21T13:57:13.297Z,71.80
2018-11-21T13:59:43.196Z,71.90
2018-11-21T14:02:13.192Z,71.40
2018-11-21T14:04:43.085Z,71.30
2018-11-21T14:07:13.246Z,71.40
2018-11-21T14:09:43.142Z,72.00
2018-11-21T14:12:13.024Z,71.60
2018-11-21T14:14:42.917Z,71.50
2018-11-21T14:17:12.840Z,72.00
2018-11-21T14:19:42.721Z,72.70
2018-11-21T14:22:12.614Z,72.50
2018-11-21T14:24:42.527Z,72.20
2018-11-21T14:27:12.429Z,72.20
2018-11-21T14:29:42.331Z,72.50
2018-11-21T14:32:12.252Z,72.30
2018-11-21T14:34:42.166Z,72.50
2018-11-21T14:37:12.051Z,73.00
2018-11-21T14:39:41.950Z,72.10
2018-11-21T14:42:11.862Z,71.90
2018-11-21T14:44:42.074Z,72.00
2018-11-21T14:47:14.644Z,71.70
2018-11-21T14:49:46.830Z,71.80
2018-11-21T14:52:16.735Z,71.70
2018-11-21T14:54:46.672Z,72.50
2018-11-21T14:57:16.928Z,72.80
2018-11-21T14:59:46.866Z,71.80
2018-11-21T15:02:16.782Z,72.20
2018-11-21T15:04:46.668Z,72.50
2018-11-21T15:07:16.572Z,72.10
2018-11-21T15:09:46.545Z,72.40
2018-11-21T15:12:16.528Z,71.90
2018-11-21T15:14:46.747Z,72.50
2018-11-21T15:17:16.659Z,72.80
2018-11-21T15:19:46.622Z,72.80
2018-11-21T15:22:16.539Z,72.80
2018-11-21T15:24:46.434Z,73.00
2018-11-21T15:27:16.331Z,73.10
2018-11-21T15:29:46.339Z,73.10
2018-11-21T15:32:16.248Z,73.10
2018-11-21T15:34:46.120Z,73.30
2018-11-21T15:37:16.057Z,73.40
2018-11-21T15:39:45.940Z,73.80
2018-11-21T15:42:16.794Z,73.70
2018-11-21T15:44:46.683Z,73.50
2018-11-21T15:47:16.564Z,73.30
2018-11-21T15:49:46.453Z,73.90
2018-11-21T15:52:16.607Z,73.40
2018-11-21T15:54:46.815Z,73.60
2018-11-21T15:57:16.692Z,73.70
2018-11-21T15:59:46.642Z,73.60
2018-11-21T16:02:16.476Z,74.00
2018-11-21T16:04:48.096Z,74.00
2018-11-21T16:07:16.375Z,74.10
2018-11-21T16:09:47.187Z,74.00
2018-11-21T16:12:17.142Z,73.50
2018-11-21T16:14:47.062Z,74.30
2018-11-21T16:17:16.951Z,74.10
2018-11-21T16:19:46.867Z,74.20
2018-11-21T16:22:16.735Z,74.50
2018-11-21T16:24:46.615Z,74.30
2018-11-21T16:27:16.941Z,74.30
2018-11-21T16:29:46.928Z,74.20
2018-11-21T16:32:16.871Z,74.30
2018-11-21T16:34:46.759Z,74.10
2018-11-21T16:37:16.673Z,74.10
2018-11-21T16:39:46.555Z,74.00
2018-11-21T16:42:16.461Z,74.00
2018-11-21T16:44:46.395Z,74.20
2018-11-21T16:47:16.313Z,74.30
2018-11-21T16:49:46.248Z,74.60
2018-11-21T16:52:16.154Z,74.60
2018-11-21T16:54:46.018Z,74.70
2018-11-21T16:57:16.107Z,74.90
2018-11-21T16:59:45.999Z,74.60
2018-11-21T17:02:15.920Z,74.60
2018-11-21T17:04:45.811Z,74.40
2018-11-21T17:07:16.040Z,74.20
2018-11-21T17:09:46.316Z,74.80
2018-11-21T17:12:16.253Z,73.50
2018-11-21T17:14:46.130Z,74.20
2018-11-21T17:17:16.044Z,73.60
2018-11-21T17:19:46.045Z,74.70
2018-11-21T17:22:16.160Z,74.30
2018-11-21T17:24:46.091Z,74.50
2018-11-21T17:27:15.983Z,74.60
2018-11-21T17:29:53.543Z,74.40
2018-11-21T17:32:15.836Z,74.40
2018-11-21T17:34:45.740Z,74.60
2018-11-21T17:37:15.639Z,74.80
2018-11-21T17:39:45.556Z,75.10
2018-11-21T17:42:15.440Z,74.70
2018-11-21T17:44:45.359Z,74.90
2018-11-21T17:47:15.515Z,75.80
2018-11-21T17:52:15.301Z,75.50
2018-11-21T17:54:45.227Z,75.60
2018-11-21T17:57:15.172Z,75.60
2018-11-21T17:59:45.442Z,75.90
2018-11-21T18:02:15.349Z,76.10
2018-11-21T18:04:45.331Z,76.30
2018-11-21T18:07:15.259Z,76.80
2018-11-21T18:09:45.144Z,76.50
2018-11-21T18:12:15.228Z,75.60
2018-11-21T18:14:45.099Z,76.50
2018-11-21T18:17:15.359Z,76.30
2018-11-21T18:19:45.260Z,76.10
2018-11-21T18:22:15.278Z,76.60
2018-11-21T18:24:45.220Z,76.10
2018-11-21T18:27:15.092Z,76.10
2018-11-21T18:29:44.986Z,75.90
2018-11-21T18:32:14.885Z,75.40
2018-11-21T18:34:44.758Z,76.00
2018-11-21T18:37:14.766Z,76.10
2018-11-21T18:39:44.691Z,76.20
2018-11-21T18:42:14.811Z,76.60
2018-11-21T18:44:44.827Z,77.40
2018-11-21T18:47:14.730Z,76.50
2018-11-21T18:49:44.620Z,76.60
2018-11-21T18:52:14.490Z,76.60
2018-11-21T18:54:44.729Z,77.40
2018-11-21T18:57:34.614Z,77.00
2018-11-21T19:00:22.439Z,77.40
2018-11-21T19:02:52.316Z,77.20
2018-11-21T19:05:22.205Z,77.60
2018-11-21T19:07:52.240Z,77.70
2018-11-21T19:10:22.147Z,77.70
2018-11-21T19:12:52.050Z,76.60
2018-11-21T19:15:21.953Z,77.70
2018-11-21T19:17:51.914Z,77.50
2018-11-21T19:20:21.808Z,77.70
2018-11-21T19:22:51.932Z,77.50
2018-11-21T19:25:21.853Z,77.70
2018-11-21T19:27:51.756Z,77.40
2018-11-21T19:30:21.679Z,78.00
2018-11-21T19:32:51.883Z,77.50
2018-11-21T19:35:21.954Z,77.90
2018-11-21T19:37:51.848Z,77.80
2018-11-21T19:40:21.837Z,77.40
2018-11-21T19:42:51.749Z,77.30
2018-11-21T19:45:21.612Z,77.20
2018-11-21T19:47:51.575Z,76.80
2018-11-21T19:50:21.771Z,76.60
2018-11-21T19:52:51.964Z,77.00
2018-11-21T19:55:23.772Z,76.80
2018-11-21T19:57:53.656Z,77.20
2018-11-21T20:00:25.271Z,77.20
2018-11-21T20:02:55.178Z,76.30
2018-11-21T20:05:25.152Z,76.90
2018-11-21T20:07:55.394Z,77.20
2018-11-21T20:10:25.521Z,77.30
2018-11-21T20:12:55.433Z,77.40
2018-11-21T20:15:26.572Z,77.50
2018-11-21T20:17:58.349Z,77.50
2018-11-21T20:20:28.251Z,77.60
2018-11-21T20:22:58.139Z,76.20
2018-11-21T20:25:28.276Z,76.90
2018-11-21T20:27:58.209Z,77.50
2018-11-21T20:30:30.047Z,78.00
2018-11-21T20:32:59.968Z,77.10
2018-11-21T20:35:29.867Z,77.70
2018-11-21T20:37:59.782Z,77.80
2018-11-21T20:40:31.239Z,77.80
2018-11-21T20:43:01.179Z,76.60
2018-11-21T20:45:31.067Z,77.20
2018-11-21T20:48:01.802Z,77.10
2018-11-21T20:50:31.712Z,76.50
2018-11-21T20:53:09.459Z,77.00
2018-11-21T20:55:40.564Z,76.30
2018-11-21T20:58:10.460Z,77.30
2018-11-21T21:00:40.524Z,76.60
2018-11-21T21:03:10.432Z,76.90
2018-11-21T21:05:40.395Z,78.80
2018-11-21T21:08:11.219Z,78.80
2018-11-21T21:10:48.148Z,79.50
2018-11-21T21:13:18.055Z,79.30
2018-11-21T21:15:47.957Z,78.80
2018-11-21T21:18:17.851Z,79.50
2018-11-21T21:20:47.706Z,79.70
2018-11-21T21:23:18.224Z,79.60
2018-11-21T21:25:48.118Z,80.40
2018-11-21T21:28:18.049Z,80.50
2018-11-21T21:30:48.579Z,81.20
2018-11-21T21:33:18.667Z,80.00
2018-11-21T21:35:48.548Z,80.30
2018-11-21T21:38:18.434Z,80.40
2018-11-21T21:40:49.339Z,80.80
2018-11-21T21:43:20.455Z,81.40
2018-11-21T21:45:50.332Z,81.40
2018-11-21T21:48:20.223Z,80.20
2018-11-21T21:50:50.211Z,80.80
2018-11-21T21:53:20.094Z,81.90
2018-11-21T21:55:49.971Z,81.30
2018-11-21T21:58:19.843Z,81.80
2018-11-21T22:00:49.727Z,81.10
2018-11-21T22:03:19.599Z,80.80
2018-11-21T22:05:49.904Z,81.20
2018-11-21T22:08:19.797Z,81.10
2018-11-21T22:10:49.689Z,80.80
2018-11-21T22:13:19.756Z,79.70
2018-11-21T22:15:49.827Z,80.30
2018-11-21T22:18:19.710Z,80.00
2018-11-21T22:20:49.584Z,80.00
2018-11-21T22:23:19.448Z,80.10
2018-11-21T22:25:49.373Z,80.20
2018-11-21T22:28:19.523Z,79.30
2018-11-21T22:30:49.415Z,80.10
2018-11-21T22:33:19.291Z,79.00
2018-11-21T22:35:49.175Z,79.80
2018-11-21T22:38:19.068Z,80.10
2018-11-21T22:40:49.215Z,80.40
2018-11-21T22:43:19.107Z,79.20
2018-11-21T22:45:49.011Z,79.50
2018-11-21T22:48:19.207Z,80.40
2018-11-21T22:50:49.112Z,80.40
2018-11-21T22:53:19.020Z,80.10
2018-11-21T22:55:48.893Z,80.30
2018-11-21T22:58:18.793Z,79.80
2018-11-21T23:00:50.733Z,80.20
2018-11-21T23:03:21.822Z,79.40
2018-11-21T23:05:52.490Z,79.00
2018-11-21T23:08:22.760Z,79.90
2018-11-21T23:10:54.021Z,79.80
2018-11-21T23:13:23.914Z,79.30
2018-11-21T23:15:53.803Z,79.10
2018-11-21T23:18:23.751Z,79.30
2018-11-21T23:20:53.650Z,79.10
2018-11-21T23:23:23.539Z,78.80
2018-11-21T23:25:53.451Z,79.10
2018-11-21T23:28:23.839Z,79.40
2018-11-21T23:30:55.713Z,79.40
2018-11-21T23:33:25.645Z,79.20
2018-11-21T23:35:55.587Z,79.20
2018-11-21T23:38:25.511Z,79.40
2018-11-21T23:40:55.643Z,79.40
2018-11-21T23:43:26.408Z,79.20
2018-11-21T23:45:56.592Z,78.90
2018-11-21T23:48:27.509Z,79.30
2018-11-21T23:50:57.403Z,79.80
2018-11-21T23:53:27.319Z,79.70
2018-11-21T23:55:57.338Z,79.20
2018-11-21T23:58:27.248Z,78.90
